Terminal Aerodrome Forecast
Issued by NWS

Home | Current Version | Previous Version | Text Only | Print | Product List | Glossary On
Versions: 1 2 3 4 5 6 7 8 9 10 11 12 13 14 15 16 17 18
000
FTUS44 KMAF 191100
TAFFST
TAF
KFST 191120Z 1912/2012 28010KT P6SM SKC
     FM191500 32012G20KT P6SM SKC
     FM192000 33008KT P6SM FEW250
     FM200100 09008KT P6SM SCT250=

USA.gov is the U.S. government's official web portal to all federal, state and local government web resources and services.